createdAt,value
2022-09-28T00:02:26.603Z,1.40
2022-09-28T00:05:12.780Z,1.20
2022-09-28T00:07:58.564Z,1.45
2022-09-28T00:10:46.357Z,1.40
2022-09-28T00:13:33.267Z,1.42
2022-09-28T00:16:22.103Z,1.48
2022-09-28T00:19:08.344Z,1.80
2022-09-28T00:21:54.213Z,2.15
2022-09-28T00:24:39.948Z,1.65
2022-09-28T00:27:25.666Z,2.40
2022-09-28T00:30:11.495Z,2.40
2022-09-28T00:32:57.546Z,2.22
2022-09-28T00:35:43.580Z,1.98
2022-09-28T00:38:30.200Z,2.28
2022-09-28T00:41:16.528Z,2.10
2022-09-28T00:44:24.245Z,2.50
2022-09-28T00:47:10.243Z,2.75
2022-09-28T00:50:00.190Z,2.88
2022-09-28T00:53:03.641Z,3.00
2022-09-28T00:55:54.736Z,2.92
2022-09-28T00:58:50.202Z,2.58
2022-09-28T01:01:37.034Z,2.75
2022-09-28T01:04:27.983Z,2.70
2022-09-28T01:07:18.237Z,2.43
2022-09-28T01:10:05.252Z,2.35
2022-09-28T01:12:50.925Z,2.28
2022-09-28T01:16:09.493Z,2.63
2022-09-28T01:19:23.182Z,2.97
2022-09-28T01:22:26.751Z,2.50
2022-09-28T01:28:13.579Z,2.38
2022-09-28T01:31:06.603Z,2.30
2022-09-28T01:33:58.757Z,2.33
2022-09-28T01:36:50.836Z,2.85
2022-09-28T01:39:43.487Z,2.45
2022-09-28T01:42:33.211Z,2.42
2022-09-28T01:45:33.917Z,2.58
2022-09-28T01:48:46.619Z,2.60
2022-09-28T01:52:02.815Z,2.33
2022-09-28T01:55:13.752Z,2.08
2022-09-28T01:58:13.389Z,2.30
2022-09-28T02:01:24.404Z,2.20
2022-09-28T02:04:25.278Z,2.63
2022-09-28T02:07:59.947Z,2.60
2022-09-28T02:11:01.910Z,2.13
2022-09-28T02:13:56.994Z,2.42
2022-09-28T02:16:45.728Z,2.40
2022-09-28T02:19:33.900Z,2.33
2022-09-28T02:22:28.087Z,2.40
2022-09-28T02:25:20.036Z,2.35
2022-09-28T02:28:08.509Z,2.55
2022-09-28T02:30:55.163Z,2.90
2022-09-28T02:33:43.701Z,3.05
2022-09-28T02:36:30.471Z,2.42
2022-09-28T02:39:19.015Z,2.33
2022-09-28T02:42:21.693Z,2.60
2022-09-28T02:45:48.042Z,2.00
2022-09-28T02:48:55.757Z,2.38
2022-09-28T02:52:00.556Z,2.55
2022-09-28T02:55:04.967Z,2.38
2022-09-28T02:58:24.886Z,2.17
2022-09-28T03:01:29.942Z,2.05
2022-09-28T03:04:42.437Z,2.45
2022-09-28T03:07:50.109Z,2.05
2022-09-28T03:11:05.330Z,2.33
2022-09-28T03:13:52.928Z,2.08
2022-09-28T03:16:46.203Z,2.17
2022-09-28T03:19:34.013Z,2.42
2022-09-28T03:22:19.691Z,2.22
2022-09-28T03:25:07.403Z,2.28
2022-09-28T03:27:54.661Z,2.03
2022-09-28T03:30:41.710Z,2.42
2022-09-28T03:33:28.036Z,2.50
2022-09-28T03:36:15.089Z,2.55
2022-09-28T03:39:00.675Z,2.30
2022-09-28T03:41:46.534Z,3.00
2022-09-28T03:44:32.277Z,2.47
2022-09-28T03:47:19.341Z,2.40
2022-09-28T03:50:05.999Z,2.20
2022-09-28T03:52:51.485Z,2.47
2022-09-28T03:55:38.306Z,2.70
2022-09-28T03:58:24.000Z,2.80
2022-09-28T04:01:16.400Z,2.92
2022-09-28T04:04:04.135Z,2.45
2022-09-28T04:06:49.814Z,2.72
2022-09-28T04:09:35.207Z,2.90
2022-09-28T04:12:21.210Z,2.67
2022-09-28T04:15:07.198Z,3.35
2022-09-28T04:17:52.925Z,3.20
2022-09-28T04:21:07.312Z,2.88
2022-09-28T04:23:59.433Z,3.53
2022-09-28T04:26:45.375Z,3.72
2022-09-28T04:29:31.931Z,3.67
2022-09-28T04:32:18.783Z,3.47
2022-09-28T04:35:04.404Z,3.42
2022-09-28T04:37:50.317Z,3.92
2022-09-28T04:40:36.032Z,4.60
2022-09-28T04:43:21.651Z,3.58
2022-09-28T04:46:07.518Z,4.07
2022-09-28T04:49:02.519Z,4.13
2022-09-28T04:52:03.836Z,4.32
2022-09-28T04:54:49.430Z,3.90
2022-09-28T04:57:35.935Z,4.75
2022-09-28T05:00:21.691Z,4.95
2022-09-28T05:03:22.650Z,5.30
2022-09-28T05:06:34.856Z,5.38
2022-09-28T05:09:24.211Z,6.70
2022-09-28T05:12:10.742Z,6.47
2022-09-28T05:14:57.011Z,6.32
2022-09-28T05:17:42.522Z,6.30
2022-09-28T05:20:41.770Z,6.93
2022-09-28T05:23:30.199Z,7.45
2022-09-28T05:26:16.219Z,7.50
2022-09-28T05:29:02.170Z,8.52
2022-09-28T05:31:53.952Z,8.90
2022-09-28T05:35:01.127Z,9.43
2022-09-28T05:37:56.849Z,9.40
2022-09-28T05:40:42.886Z,9.48
2022-09-28T05:43:30.714Z,9.82
2022-09-28T05:46:17.266Z,9.55
2022-09-28T05:49:03.589Z,10.10
2022-09-28T05:51:49.340Z,9.60
2022-09-28T05:54:34.787Z,9.68
2022-09-28T05:57:20.395Z,9.43
2022-09-28T06:00:09.932Z,8.77
2022-09-28T06:03:06.599Z,9.43
2022-09-28T06:05:54.657Z,9.27
2022-09-28T06:08:44.084Z,8.60
2022-09-28T06:11:53.043Z,8.15
2022-09-28T06:15:10.966Z,8.75
2022-09-28T06:18:02.680Z,7.88
2022-09-28T06:20:54.982Z,8.35
2022-09-28T06:23:49.895Z,8.85
2022-09-28T06:26:37.411Z,8.55
2022-09-28T06:29:24.396Z,8.52
2022-09-28T06:32:12.428Z,8.70
2022-09-28T06:35:01.916Z,8.07
2022-09-28T06:37:47.899Z,8.05
2022-09-28T06:40:34.621Z,8.30
2022-09-28T06:43:21.004Z,8.25
2022-09-28T06:46:25.874Z,8.45
2022-09-28T06:49:21.041Z,8.30
2022-09-28T06:52:29.990Z,8.48
2022-09-28T06:55:49.154Z,8.55
2022-09-28T06:58:36.330Z,7.80
2022-09-28T07:01:21.964Z,8.23
2022-09-28T07:04:20.428Z,7.97
2022-09-28T07:07:33.087Z,8.65
2022-09-28T07:10:45.711Z,8.45
2022-09-28T07:13:50.435Z,8.15
2022-09-28T07:17:03.290Z,8.00
2022-09-28T07:19:46.491Z,8.45
2022-09-28T07:22:43.080Z,8.70
2022-09-28T07:25:33.112Z,8.13
2022-09-28T07:28:40.469Z,7.50
2022-09-28T07:31:49.197Z,7.50
2022-09-28T07:35:00.312Z,7.93
2022-09-28T07:38:06.153Z,8.18
2022-09-28T07:41:11.306Z,7.90
2022-09-28T07:44:06.202Z,7.78
2022-09-28T07:46:54.491Z,7.28
2022-09-28T07:49:45.966Z,8.35
2022-09-28T07:52:51.491Z,8.65
2022-09-28T07:56:06.433Z,7.80
2022-09-28T07:58:57.505Z,6.82
2022-09-28T08:01:43.571Z,7.63
2022-09-28T08:04:32.559Z,7.15
2022-09-28T08:07:24.246Z,7.25
2022-09-28T08:10:17.381Z,7.47
2022-09-28T08:13:09.194Z,6.93
2022-09-28T08:16:10.048Z,7.32
2022-09-28T08:19:19.335Z,7.65
2022-09-28T08:22:07.317Z,6.85
2022-09-28T08:24:53.216Z,6.72
2022-09-28T08:27:39.284Z,6.72
2022-09-28T08:30:25.252Z,7.95
2022-09-28T08:33:21.747Z,7.43
2022-09-28T08:36:10.114Z,6.95
2022-09-28T08:39:15.866Z,6.22
2022-09-28T08:42:40.779Z,6.75
2022-09-28T08:45:50.768Z,7.13
2022-09-28T08:49:25.733Z,6.68
2022-09-28T08:52:38.515Z,6.75
2022-09-28T08:55:57.270Z,6.57
2022-09-28T08:58:48.230Z,6.03
2022-09-28T09:01:42.401Z,6.63
2022-09-28T09:04:34.059Z,6.28
2022-09-28T09:07:26.349Z,6.68
2022-09-28T09:10:28.637Z,6.15
2022-09-28T09:13:41.003Z,7.45
2022-09-28T09:17:02.865Z,8.15
2022-09-28T09:20:42.838Z,7.47
2022-09-28T09:23:56.946Z,7.15
2022-09-28T09:26:43.672Z,6.13
2022-09-28T09:29:53.491Z,6.40
2022-09-28T09:33:00.767Z,6.05
2022-09-28T09:35:50.146Z,6.57
2022-09-28T09:39:03.591Z,6.93
2022-09-28T09:42:08.261Z,6.22
2022-09-28T09:45:12.493Z,6.90
2022-09-28T09:48:20.198Z,6.47
2022-09-28T09:51:22.890Z,6.63
2022-09-28T09:54:23.820Z,6.25
2022-09-28T09:57:18.922Z,6.10
2022-09-28T10:00:19.225Z,6.22
2022-09-28T10:03:20.466Z,6.65
2022-09-28T10:06:11.127Z,7.22
2022-09-28T10:09:26.266Z,5.88
2022-09-28T10:12:20.336Z,5.60
2022-09-28T10:15:07.869Z,5.28
2022-09-28T10:18:11.214Z,6.05
2022-09-28T10:21:19.880Z,5.90
2022-09-28T10:24:28.816Z,5.90
2022-09-28T10:27:24.450Z,5.95
2022-09-28T10:30:09.993Z,5.00
2022-09-28T10:32:59.390Z,6.72
2022-09-28T10:35:49.765Z,5.60
2022-09-28T10:38:35.735Z,5.25
2022-09-28T10:41:27.317Z,4.82
2022-09-28T10:44:19.324Z,5.13
2022-09-28T10:47:32.778Z,5.03
2022-09-28T10:50:24.552Z,4.32
2022-09-28T10:53:21.187Z,4.55
2022-09-28T10:56:42.822Z,4.40
2022-09-28T10:59:41.472Z,5.18
2022-09-28T11:03:01.645Z,4.57
2022-09-28T11:06:00.177Z,4.47
2022-09-28T11:08:50.444Z,4.47
2022-09-28T11:11:42.927Z,4.47
2022-09-28T11:14:42.481Z,4.55
2022-09-28T11:17:43.863Z,3.90
2022-09-28T11:20:34.698Z,4.20
2022-09-28T11:23:32.185Z,4.50
2022-09-28T11:26:37.460Z,3.63
2022-09-28T11:29:31.270Z,3.67
2022-09-28T11:32:43.988Z,3.75
2022-09-28T11:36:05.087Z,3.92
2022-09-28T11:38:54.084Z,3.53
2022-09-28T11:42:01.968Z,2.97
2022-09-28T11:45:01.392Z,3.20
2022-09-28T11:48:09.824Z,3.33
2022-09-28T11:51:02.041Z,3.50
2022-09-28T11:54:31.421Z,3.25
2022-09-28T11:57:25.359Z,3.35
2022-09-28T12:00:18.576Z,3.40
2022-09-28T12:03:25.264Z,3.38
2022-09-28T12:06:17.662Z,3.30
2022-09-28T12:09:36.329Z,3.88
2022-09-28T12:12:35.684Z,3.40
2022-09-28T12:16:17.163Z,3.35
2022-09-28T12:19:03.590Z,2.70
2022-09-28T12:21:52.083Z,2.80
2022-09-28T12:24:44.142Z,2.25
2022-09-28T12:27:47.435Z,3.88
2022-09-28T12:30:37.503Z,3.00
2022-09-28T12:33:23.089Z,2.50
2022-09-28T12:36:43.143Z,2.95
2022-09-28T12:39:57.409Z,2.55
2022-09-28T12:43:03.344Z,2.70
2022-09-28T12:46:13.424Z,2.47
2022-09-28T12:52:37.786Z,2.13
2022-09-28T12:55:45.031Z,2.10
2022-09-28T12:59:00.085Z,2.75
2022-09-28T13:02:15.795Z,2.38
2022-09-28T13:05:07.814Z,2.30
2022-09-28T13:08:12.267Z,2.80
2022-09-28T13:11:16.260Z,2.50
2022-09-28T13:14:16.899Z,2.92
2022-09-28T13:17:37.757Z,2.08
2022-09-28T13:20:36.084Z,2.58
2022-09-28T13:23:26.409Z,2.28
2022-09-28T13:26:28.152Z,2.13
2022-09-28T13:29:16.930Z,1.70
2022-09-28T13:32:03.506Z,2.13
2022-09-28T13:34:50.681Z,2.05
2022-09-28T13:37:36.595Z,2.58
2022-09-28T13:41:00.770Z,2.30
2022-09-28T13:44:12.402Z,1.90
2022-09-28T13:47:13.150Z,2.45
2022-09-28T13:50:18.972Z,1.95
2022-09-28T13:53:11.790Z,1.92
2022-09-28T13:56:20.945Z,2.35
2022-09-28T13:59:20.745Z,2.22
2022-09-28T14:02:21.515Z,2.50
2022-09-28T14:05:46.479Z,2.30
2022-09-28T14:08:45.487Z,2.20
2022-09-28T14:11:31.300Z,1.98
2022-09-28T14:14:16.781Z,2.30
2022-09-28T14:17:21.206Z,1.98
2022-09-28T14:20:15.044Z,2.25
2022-09-28T14:23:32.612Z,1.88
2022-09-28T14:26:30.963Z,2.05
2022-09-28T14:29:22.495Z,2.40
2022-09-28T14:32:11.193Z,2.00
2022-09-28T14:35:00.831Z,1.83
2022-09-28T14:38:11.731Z,2.00
2022-09-28T14:41:09.654Z,1.88
2022-09-28T14:44:02.890Z,2.13
2022-09-28T14:46:48.626Z,2.05
2022-09-28T14:49:34.262Z,2.33
2022-09-28T14:52:46.573Z,1.95
2022-09-28T14:55:50.193Z,2.53
2022-09-28T14:58:37.497Z,2.17
2022-09-28T15:01:25.025Z,2.63
2022-09-28T15:04:12.811Z,2.20
2022-09-28T15:06:58.735Z,2.17
2022-09-28T15:09:44.374Z,2.53
2022-09-28T15:12:33.220Z,2.05
2022-09-28T15:15:41.009Z,2.42
2022-09-28T15:18:50.578Z,2.20
2022-09-28T15:21:38.523Z,2.90
2022-09-28T15:24:31.780Z,2.35
2022-09-28T15:27:19.117Z,2.03
2022-09-28T15:30:23.583Z,2.42
2022-09-28T15:33:46.974Z,2.10
2022-09-28T15:36:39.453Z,1.98
2022-09-28T15:39:32.058Z,1.83
2022-09-28T15:42:18.712Z,2.28
2022-09-28T15:45:26.934Z,2.33
2022-09-28T15:48:19.587Z,2.55
2022-09-28T15:51:11.627Z,2.47
2022-09-28T15:54:03.082Z,1.92
2022-09-28T15:57:02.622Z,2.22
2022-09-28T15:59:56.832Z,2.25
2022-09-28T16:03:09.580Z,2.05
2022-09-28T16:05:58.513Z,2.30
2022-09-28T16:08:46.108Z,2.05
2022-09-28T16:11:39.750Z,2.17
2022-09-28T16:14:27.046Z,2.25
2022-09-28T16:17:32.822Z,2.75
2022-09-28T16:20:23.520Z,2.00
2022-09-28T16:23:16.573Z,2.28
2022-09-28T16:26:03.823Z,3.00
2022-09-28T16:28:52.039Z,2.45
2022-09-28T16:31:41.385Z,2.40
2022-09-28T16:34:28.606Z,2.92
2022-09-28T16:37:34.013Z,2.60
2022-09-28T16:40:19.709Z,3.10
2022-09-28T16:43:07.829Z,2.90
2022-09-28T16:45:58.463Z,3.30
2022-09-28T16:48:50.297Z,3.13
2022-09-28T16:51:36.103Z,2.67
2022-09-28T16:54:44.006Z,3.05
2022-09-28T16:57:29.678Z,2.97
2022-09-28T17:00:20.883Z,3.83
2022-09-28T17:03:18.494Z,2.83
2022-09-28T17:06:08.327Z,2.97
2022-09-28T17:08:59.142Z,2.40
2022-09-28T17:11:45.006Z,3.65
2022-09-28T17:14:32.788Z,3.95
2022-09-28T17:17:18.984Z,4.22
2022-09-28T17:20:28.187Z,3.45
2022-09-28T17:23:14.601Z,3.15
2022-09-28T17:26:02.736Z,3.38
2022-09-28T17:28:48.806Z,3.45
2022-09-28T17:31:34.978Z,3.10
2022-09-28T17:34:21.276Z,3.22
2022-09-28T17:37:06.902Z,3.25
2022-09-28T17:39:52.217Z,3.47
2022-09-28T17:43:02.789Z,3.60
2022-09-28T17:46:27.431Z,2.60
2022-09-28T17:49:14.162Z,3.33
2022-09-28T17:51:59.782Z,3.78
2022-09-28T17:54:45.325Z,2.80
2022-09-28T17:57:31.043Z,3.63
2022-09-28T18:00:17.917Z,3.05
2022-09-28T18:03:03.663Z,2.78
2022-09-28T18:05:58.091Z,3.50
2022-09-28T18:08:44.391Z,3.30
2022-09-28T18:11:31.316Z,3.33
2022-09-28T18:14:16.970Z,2.55
2022-09-28T18:17:03.649Z,3.00
2022-09-28T18:19:49.129Z,3.53
2022-09-28T18:22:35.011Z,3.75
2022-09-28T18:25:20.797Z,3.65
2022-09-28T18:28:06.291Z,4.13
2022-09-28T18:30:52.174Z,3.08
2022-09-28T18:33:38.245Z,3.28
2022-09-28T18:36:31.959Z,3.15
2022-09-28T18:42:04.203Z,3.50
2022-09-28T18:44:50.071Z,4.20
2022-09-28T18:47:35.434Z,3.67
2022-09-28T18:50:21.282Z,3.47
2022-09-28T18:53:12.577Z,4.25
2022-09-28T18:55:58.277Z,3.00
2022-09-28T18:58:45.562Z,3.72
2022-09-28T19:01:31.895Z,3.90
2022-09-28T19:04:20.005Z,3.50
2022-09-28T19:07:06.589Z,3.47
2022-09-28T19:09:53.317Z,3.75
2022-09-28T19:12:39.040Z,4.07
2022-09-28T19:15:25.650Z,4.03
2022-09-28T19:18:11.530Z,3.67
2022-09-28T19:21:05.604Z,3.72
2022-09-28T19:23:52.066Z,4.50
2022-09-28T19:26:37.437Z,4.20
2022-09-28T19:29:23.550Z,4.85
2022-09-28T19:32:09.287Z,4.43
2022-09-28T19:34:54.776Z,4.20
2022-09-28T19:37:40.303Z,4.93
2022-09-28T19:40:25.750Z,4.28
2022-09-28T19:43:11.278Z,4.45
2022-09-28T19:46:04.408Z,4.38
2022-09-28T19:48:49.866Z,4.40
2022-09-28T19:51:37.169Z,4.47
2022-09-28T19:54:33.122Z,4.88
2022-09-28T19:57:21.510Z,4.07
2022-09-28T20:00:10.700Z,4.03
2022-09-28T20:02:56.307Z,4.80
2022-09-28T20:05:43.295Z,4.13
2022-09-28T20:08:32.974Z,4.55
2022-09-28T20:11:19.897Z,4.50
2022-09-28T20:14:09.738Z,4.43
2022-09-28T20:16:55.728Z,4.60
2022-09-28T20:19:41.510Z,5.07
2022-09-28T20:22:27.049Z,6.63
2022-09-28T20:25:13.155Z,6.60
2022-09-28T20:27:58.738Z,6.20
2022-09-28T20:30:44.230Z,5.05
2022-09-28T20:33:31.023Z,4.80
2022-09-28T20:36:20.443Z,4.15
2022-09-28T20:39:06.356Z,4.07
2022-09-28T20:41:51.861Z,3.80
2022-09-28T20:44:37.523Z,4.47
2022-09-28T20:47:23.231Z,3.50
2022-09-28T20:50:09.342Z,3.50
2022-09-28T20:52:55.028Z,3.40
2022-09-28T20:55:40.613Z,3.00
2022-09-28T20:58:26.886Z,3.25
2022-09-28T21:01:17.268Z,3.65
2022-09-28T21:04:05.409Z,2.90
2022-09-28T21:06:50.896Z,3.17
2022-09-28T21:09:37.506Z,3.08
2022-09-28T21:12:25.930Z,3.00
2022-09-28T21:15:11.514Z,2.97
2022-09-28T21:17:57.136Z,3.08
2022-09-28T21:20:51.086Z,3.55
2022-09-28T21:23:36.699Z,3.03
2022-09-28T21:26:25.142Z,3.53
2022-09-28T21:29:13.208Z,3.60
2022-09-28T21:31:58.762Z,3.85
2022-09-28T21:34:44.539Z,3.55
2022-09-28T21:37:30.211Z,3.70
2022-09-28T21:40:15.963Z,4.22
2022-09-28T21:43:01.563Z,4.13
2022-09-28T21:45:50.373Z,3.85
2022-09-28T21:48:36.153Z,3.88
2022-09-28T21:51:22.049Z,4.03
2022-09-28T21:54:08.216Z,4.00
2022-09-28T21:56:53.827Z,3.80
2022-09-28T21:59:39.458Z,4.20
2022-09-28T22:02:24.949Z,4.18
2022-09-28T22:05:11.836Z,3.97
2022-09-28T22:07:57.490Z,4.43
2022-09-28T22:10:43.059Z,4.65
2022-09-28T22:13:34.095Z,4.25
2022-09-28T22:16:22.842Z,4.60
2022-09-28T22:19:08.895Z,4.93
2022-09-28T22:21:54.699Z,4.57
2022-09-28T22:24:40.387Z,5.00
2022-09-28T22:27:25.947Z,4.38
2022-09-28T22:30:13.134Z,5.07
2022-09-28T22:32:58.599Z,4.85
2022-09-28T22:35:46.242Z,5.03
2022-09-28T22:38:32.350Z,4.72
2022-09-28T22:41:20.943Z,5.07
2022-09-28T22:44:06.834Z,4.53
2022-09-28T22:46:52.665Z,4.47
2022-09-28T22:49:38.575Z,5.10
2022-09-28T22:52:24.182Z,4.57
2022-09-28T22:55:10.414Z,4.30
2022-09-28T22:57:56.123Z,5.05
2022-09-28T23:00:43.428Z,5.22
2022-09-28T23:03:29.167Z,5.80
2022-09-28T23:06:16.941Z,5.63
2022-09-28T23:09:02.654Z,5.55
2022-09-28T23:11:48.635Z,5.88
2022-09-28T23:14:34.232Z,6.18
2022-09-28T23:17:19.900Z,6.53
2022-09-28T23:20:05.762Z,6.05
2022-09-28T23:22:51.531Z,6.47
2022-09-28T23:25:37.095Z,6.55
2022-09-28T23:28:24.469Z,7.57
2022-09-28T23:31:13.416Z,6.88
2022-09-28T23:34:05.560Z,6.90
2022-09-28T23:36:55.003Z,6.78
2022-09-28T23:39:41.025Z,7.45
2022-09-28T23:42:26.679Z,7.53
2022-09-28T23:45:12.066Z,6.50
2022-09-28T23:47:57.790Z,6.15
2022-09-28T23:50:44.399Z,5.57
2022-09-28T23:53:32.287Z,5.53
2022-09-28T23:56:18.075Z,5.70
2022-09-28T23:59:03.849Z,5.32
